Terminal Aerodrome Forecast
Issued by NWS Duluth, MN

Home | Current Version | Previous Version | Text Only | Print | Product List | Glossary On
Versions: 1 2 3 4 5 6 7 8 9 10 11 12 13 14 15 16 17 18 19 20 21 22
328
FTUS43 KDLH 240531
TAFINL
TAF
KINL 240531Z 2406/2506 00000KT P6SM SKC
     FM241500 11008KT P6SM SCT060
     FM250100 13004KT P6SM SKC=

USA.gov is the U.S. government's official web portal to all federal, state and local government web resources and services.